VYST weather

Public forecast

Using degrees Celsius for public forecast. Weather courtesy of forecast.io.

Closest aviation weather report (METAR) to Shante Air Base

Report is more than 2 hours old.

Closest report is Mandalay International Airport, 45.8 nm (84.8 km) N. Retrieved 2020/08/10 11:30 UTC (5 hours ago):

VYMD 101130Z 14007G15KT 6000 BKN018 FEW020CB BKN100 33/24 Q1001

Closest aviation forecast (TAF) to Shante Air Base

Closest forecast is Mandalay International Airport, 45.8 nm (84.8 km) N. Retrieved 2020/08/10 12:00 UTC (4 hours ago):

TAF VYMD 101100Z 1012/1112 17010KT 6000 BKN020 BKN120 TEMPO 1012/1018 18010G20KT 5000 -TSRA BKN018 FEW020CB OVC100